Salina, UT (84654)

1:08 PM MDT on August 22, 2014 (GMT -0600)
Rotary Park | Change Station
CLOSE
Current Station
Personal Weather Station
Location: Richfield, UT
Elevation: 5433 ft
Nearby Weather Stations

Elev 5433 ft 38.76 °N, 112.10 °W | Updated 25 seconds ago

Partly Cloudy
Partly Cloudy
77.9 °F
Feels Like 78 °F
N
5.4
Wind Variable Wind from SSE
Gusts 7.6 mph

Today
High -- | Low -- °F
--% Chance of Precip.
Yesterday
High -- | Low -- °F
Precip. -- in
6:47 AM 8:12 PM
Waning Crescent, 7% visible
Pressure 29.87 in
Visibility 10.0 miles
Clouds Clear
Heat Index 78 °F
Dew Point 37 °F
Humidity 23%
Rainfall 0.00 in
Snow Depth 0 in
UV 11 out of 12
Pollen 8.50 out of 12
Air Quality Not available.
Flu Activity Not available.
METAR KMLF 221852Z AUTO 19018G25KT 10SM CLR 26/08 A3006 RMK AO2 PK WND 20027/1818 SLP114 T02610078

More Conditions Fewer Conditions

Pressure 29.87 in
Visibility 10.0 miles
Clouds Clear
Heat Index 78 °F
Dew Point 37 °F
Humidity 23%
Rainfall 0.00 in
Snow Depth 0 in
UV 11 out of 12
Pollen 8.50 out of 12
Air Quality Not available.
Flu Activity Not available.
METAR KMLF 221852Z AUTO 19018G25KT 10SM CLR 26/08 A3006 RMK AO2 PK WND 20027/1818 SLP114 T02610078

More Conditions Fewer Conditions

10-Day Weather Forecast

Almanac

Astronomy

Aug. 22, 2014 Rise Set
Actual Time 6:47 AM MDT 8:12 PM MDT
Civil Twilight 6:19 AM MDT 8:40 PM MDT
Nautical Twilight 5:45 AM MDT 9:13 PM MDT
Astronomical Twilight 5:10 AM MDT 9:49 PM MDT
Moon 4:13 AM MDT 6:22 PM MDT
Length of Visible Light 14h 21m
Length of Day
13h 25m
Tomorrow will be 2m 20s shorter.
Waning Crescent, 7% of the Moon is Illuminated
Today
Waning Crescent
Aug 25
New
Sep 2
First Quarter
Sep 8
Full
Sep 15
Last Quarter

Today's Extremes

State Highs State Lows

Community

WunderPhotos

Upload Photos

1,746,220 photos uploaded!

Nearby

Snow Depth

Station Depth Elevation
Gooseberry R.S. 0 in 7920 ft
Seeley Creek 0 in 10000 ft
Clear Creek #2 0 in 8300 ft
Agua Canyon 3 in 8900 ft
Long Valley Jct 0 in 7360 ft

Earthquake Activity

City Distance Mag. Time & Date
No recent earthquake activity has been reported nearby.
Minimum magnitude displayed is 2.5.

Coastal Water Temperatures

Place Temperature
No Stations Reporting

Nearby Weather Stations